sensor_id;sensor_type;location;lat;lon;timestamp;pressure;altitude;pressure_sealevel;temperature;humidity
44138;BME280;29800;55.942;37.314;2023-02-28T00:00:35;99920.56;;;-8.74;71.50
44138;BME280;29800;55.942;37.314;2023-02-28T00:03:02;99921.28;;;-8.72;71.84
44138;BME280;29800;55.942;37.314;2023-02-28T00:05:28;99907.03;;;-8.71;71.60
44138;BME280;29800;55.942;37.314;2023-02-28T00:07:55;99907.03;;;-8.71;71.79
44138;BME280;29800;55.942;37.314;2023-02-28T00:10:26;99899.94;;;-8.70;71.95
44138;BME280;29800;55.942;37.314;2023-02-28T00:12:54;99905.38;;;-8.72;72.01
44138;BME280;29800;55.942;37.314;2023-02-28T00:15:23;99903.41;;;-8.70;71.47
44138;BME280;29800;55.942;37.314;2023-02-28T00:17:49;99902.59;;;-8.70;71.67
44138;BME280;29800;55.942;37.314;2023-02-28T00:20:16;99914.63;;;-8.66;71.78
44138;BME280;29800;55.942;37.314;2023-02-28T00:22:45;99909.91;;;-8.62;71.62
44138;BME280;29800;55.942;37.314;2023-02-28T00:25:14;99904.75;;;-8.64;72.20
44138;BME280;29800;55.942;37.314;2023-02-28T00:27:41;99908.38;;;-8.65;71.74
44138;BME280;29800;55.942;37.314;2023-02-28T00:30:10;99900.41;;;-8.65;71.69
44138;BME280;29800;55.942;37.314;2023-02-28T00:32:37;99895.81;;;-8.63;71.84
44138;BME280;29800;55.942;37.314;2023-02-28T00:35:04;99890.50;;;-8.63;72.06
44138;BME280;29800;55.942;37.314;2023-02-28T00:37:31;99882.53;;;-8.63;72.33
44138;BME280;29800;55.942;37.314;2023-02-28T00:39:57;99878.94;;;-8.62;71.60
44138;BME280;29800;55.942;37.314;2023-02-28T00:42:24;99876.16;;;-8.60;72.21
44138;BME280;29800;55.942;37.314;2023-02-28T00:44:50;99874.22;;;-8.58;72.22
44138;BME280;29800;55.942;37.314;2023-02-28T00:47:16;99871.44;;;-8.57;71.83
44138;BME280;29800;55.942;37.314;2023-02-28T00:49:42;99867.94;;;-8.57;71.96
44138;BME280;29800;55.942;37.314;2023-02-28T00:52:09;99865.28;;;-8.57;71.83
44138;BME280;29800;55.942;37.314;2023-02-28T00:54:35;99856.81;;;-8.62;72.22
44138;BME280;29800;55.942;37.314;2023-02-28T00:57:01;99852.13;;;-8.59;71.89
44138;BME280;29800;55.942;37.314;2023-02-28T00:59:27;99844.06;;;-8.57;72.02
44138;BME280;29800;55.942;37.314;2023-02-28T01:01:53;99842.34;;;-8.58;72.15
44138;BME280;29800;55.942;37.314;2023-02-28T01:04:21;99835.34;;;-8.59;72.28
44138;BME280;29800;55.942;37.314;2023-02-28T01:06:47;99832.94;;;-8.62;72.21
44138;BME280;29800;55.942;37.314;2023-02-28T01:09:13;99817.75;;;-8.60;71.93
44138;BME280;29800;55.942;37.314;2023-02-28T01:11:42;99820.41;;;-8.60;72.17
44138;BME280;29800;55.942;37.314;2023-02-28T01:14:14;99817.38;;;-8.56;71.98
44138;BME280;29800;55.942;37.314;2023-02-28T01:16:42;99807.13;;;-8.60;71.87
44138;BME280;29800;55.942;37.314;2023-02-28T01:19:08;99804.09;;;-8.56;71.82
44138;BME280;29800;55.942;37.314;2023-02-28T01:21:34;99794.31;;;-8.55;72.09
44138;BME280;29800;55.942;37.314;2023-02-28T01:24:02;99788.75;;;-8.52;71.81
44138;BME280;29800;55.942;37.314;2023-02-28T01:26:28;99781.88;;;-8.55;71.95
44138;BME280;29800;55.942;37.314;2023-02-28T01:28:55;99781.75;;;-8.53;71.87
44138;BME280;29800;55.942;37.314;2023-02-28T01:31:22;99773.91;;;-8.55;72.13
44138;BME280;29800;55.942;37.314;2023-02-28T01:33:48;99771.13;;;-8.53;72.17
44138;BME280;29800;55.942;37.314;2023-02-28T01:36:17;99772.84;;;-8.52;72.65
44138;BME280;29800;55.942;37.314;2023-02-28T01:38:44;99768.25;;;-8.50;72.16
44138;BME280;29800;55.942;37.314;2023-02-28T01:41:18;99760.03;;;-8.47;72.18
44138;BME280;29800;55.942;37.314;2023-02-28T01:46:12;99750.50;;;-8.50;72.22
44138;BME280;29800;55.942;37.314;2023-02-28T01:48:45;99739.03;;;-8.50;72.48
44138;BME280;29800;55.942;37.314;2023-02-28T01:51:15;99736.97;;;-8.46;72.65
44138;BME280;29800;55.942;37.314;2023-02-28T01:53:51;99733.22;;;-8.44;72.45
44138;BME280;29800;55.942;37.314;2023-02-28T01:56:26;99735.41;;;-8.49;72.12
44138;BME280;29800;55.942;37.314;2023-02-28T01:58:54;99729.50;;;-8.53;72.44
44138;BME280;29800;55.942;37.314;2023-02-28T02:01:23;99729.25;;;-8.50;72.58
44138;BME280;29800;55.942;37.314;2023-02-28T02:04:01;99729.25;;;-8.50;72.25
44138;BME280;29800;55.942;37.314;2023-02-28T02:06:34;99728.41;;;-8.50;72.96
44138;BME280;29800;55.942;37.314;2023-02-28T02:09:02;99712.47;;;-8.50;72.65
44138;BME280;29800;55.942;37.314;2023-02-28T02:11:28;99711.41;;;-8.47;72.94
44138;BME280;29800;55.942;37.314;2023-02-28T02:28:26;99678.41;;;-8.45;72.83
44138;BME280;29800;55.942;37.314;2023-02-28T02:36:25;99663.91;;;-8.41;72.44
44138;BME280;29800;55.942;37.314;2023-02-28T02:39:04;99672.56;;;-8.39;72.62
44138;BME280;29800;55.942;37.314;2023-02-28T02:41:41;99656.38;;;-8.36;72.87
44138;BME280;29800;55.942;37.314;2023-02-28T02:46:45;99649.63;;;-8.40;72.44
44138;BME280;29800;55.942;37.314;2023-02-28T02:49:32;99640.72;;;-8.39;72.82
44138;BME280;29800;55.942;37.314;2023-02-28T02:52:07;99640.72;;;-8.39;72.64
44138;BME280;29800;55.942;37.314;2023-02-28T02:54:38;99631.78;;;-8.38;72.97
44138;BME280;29800;55.942;37.314;2023-02-28T02:57:18;99628.69;;;-8.33;72.92
44138;BME280;29800;55.942;37.314;2023-02-28T02:59:47;99634.88;;;-8.33;72.64
44138;BME280;29800;55.942;37.314;2023-02-28T03:02:16;99621.34;;;-8.29;72.90
44138;BME280;29800;55.942;37.314;2023-02-28T03:04:52;99616.03;;;-8.29;72.84
44138;BME280;29800;55.942;37.314;2023-02-28T03:07:21;99608.31;;;-8.33;72.74
44138;BME280;29800;55.942;37.314;2023-02-28T03:09:52;99600.63;;;-8.36;72.81
44138;BME280;29800;55.942;37.314;2023-02-28T03:12:19;99598.22;;;-8.39;72.92
44138;BME280;29800;55.942;37.314;2023-02-28T03:20:27;99597.97;;;-8.36;72.58
44138;BME280;29800;55.942;37.314;2023-02-28T03:26:03;99593.91;;;-8.30;72.93
44138;BME280;29800;55.942;37.314;2023-02-28T03:28:51;99594.31;;;-8.35;72.58
44138;BME280;29800;55.942;37.314;2023-02-28T03:31:25;99590.00;;;-8.36;72.85
44138;BME280;29800;55.942;37.314;2023-02-28T03:36:39;99577.28;;;-8.32;73.02
44138;BME280;29800;55.942;37.314;2023-02-28T03:39:16;99575.72;;;-8.35;72.90
44138;BME280;29800;55.942;37.314;2023-02-28T03:41:53;99565.09;;;-8.35;72.68
44138;BME280;29800;55.942;37.314;2023-02-28T03:44:32;99562.19;;;-8.32;72.67
44138;BME280;29800;55.942;37.314;2023-02-28T03:50:05;99553.97;;;-8.28;72.86
44138;BME280;29800;55.942;37.314;2023-02-28T03:52:34;99548.22;;;-8.34;72.50
44138;BME280;29800;55.942;37.314;2023-02-28T03:55:06;99549.03;;;-8.33;73.10
44138;BME280;29800;55.942;37.314;2023-02-28T03:57:54;99539.41;;;-8.34;72.50
44138;BME280;29800;55.942;37.314;2023-02-28T04:00:33;99548.22;;;-8.34;72.34
44138;BME280;29800;55.942;37.314;2023-02-28T04:03:01;99551.81;;;-8.35;72.59
44138;BME280;29800;55.942;37.314;2023-02-28T04:05:27;99551.81;;;-8.35;72.79
44138;BME280;29800;55.942;37.314;2023-02-28T04:07:53;99541.50;;;-8.38;72.86
44138;BME280;29800;55.942;37.314;2023-02-28T04:10:19;99536.75;;;-8.34;72.23
44138;BME280;29800;55.942;37.314;2023-02-28T04:12:46;99529.63;;;-8.34;72.57
44138;BME280;29800;55.942;37.314;2023-02-28T04:15:12;99533.97;;;-8.33;72.51
44138;BME280;29800;55.942;37.314;2023-02-28T04:17:38;99528.53;;;-8.31;72.53
44138;BME280;29800;55.942;37.314;2023-02-28T04:20:04;99521.41;;;-8.31;72.41
44138;BME280;29800;55.942;37.314;2023-02-28T04:22:35;99514.38;;;-8.32;71.74
44138;BME280;29800;55.942;37.314;2023-02-28T04:25:03;99494.84;;;-8.31;72.24
44138;BME280;29800;55.942;37.314;2023-02-28T04:27:29;99491.31;;;-8.41;72.07
44138;BME280;29800;55.942;37.314;2023-02-28T04:29:55;99487.41;;;-8.37;71.84
44138;BME280;29800;55.942;37.314;2023-02-28T04:32:21;99482.53;;;-8.32;72.37
44138;BME280;29800;55.942;37.314;2023-02-28T04:34:47;99491.22;;;-8.29;72.06
44138;BME280;29800;55.942;37.314;2023-02-28T04:37:13;99488.72;;;-8.21;71.71
44138;BME280;29800;55.942;37.314;2023-02-28T04:39:40;99474.75;;;-8.14;72.25
44138;BME280;29800;55.942;37.314;2023-02-28T04:42:06;99466.09;;;-8.06;72.07
44138;BME280;29800;55.942;37.314;2023-02-28T04:44:32;99459.25;;;-7.99;71.59
44138;BME280;29800;55.942;37.314;2023-02-28T04:46:58;99456.19;;;-7.94;71.34
44138;BME280;29800;55.942;37.314;2023-02-28T04:49:25;99448.75;;;-7.90;71.37
44138;BME280;29800;55.942;37.314;2023-02-28T04:51:51;99438.00;;;-7.89;71.15
44138;BME280;29800;55.942;37.314;2023-02-28T04:54:18;99436.91;;;-7.86;71.22
44138;BME280;29800;55.942;37.314;2023-02-28T04:56:44;99430.31;;;-7.82;71.14
44138;BME280;29800;55.942;37.314;2023-02-28T04:59:10;99427.22;;;-7.78;70.99
44138;BME280;29800;55.942;37.314;2023-02-28T05:01:36;99423.88;;;-7.70;70.81
44138;BME280;29800;55.942;37.314;2023-02-28T05:04:03;99420.41;;;-7.61;70.72
44138;BME280;29800;55.942;37.314;2023-02-28T05:06:31;99405.69;;;-7.55;70.13
44138;BME280;29800;55.942;37.314;2023-02-28T05:08:58;99412.97;;;-7.47;70.03
44138;BME280;29800;55.942;37.314;2023-02-28T05:11:28;99411.25;;;-7.39;70.08
44138;BME280;29800;55.942;37.314;2023-02-28T05:13:59;99407.59;;;-7.28;69.39
44138;BME280;29800;55.942;37.314;2023-02-28T05:16:25;99400.72;;;-7.21;69.43
44138;BME280;29800;55.942;37.314;2023-02-28T05:18:51;99395.50;;;-7.12;69.26
44138;BME280;29800;55.942;37.314;2023-02-28T05:21:38;99397.41;;;-6.95;68.98
44138;BME280;29800;55.942;37.314;2023-02-28T05:24:09;99386.06;;;-6.97;68.68
44138;BME280;29800;55.942;37.314;2023-02-28T05:26:37;99377.78;;;-6.94;68.54
44138;BME280;29800;55.942;37.314;2023-02-28T05:29:04;99375.84;;;-6.92;68.49
44138;BME280;29800;55.942;37.314;2023-02-28T05:31:30;99374.41;;;-6.86;68.26
44138;BME280;29800;55.942;37.314;2023-02-28T05:33:57;99360.81;;;-6.83;67.81
44138;BME280;29800;55.942;37.314;2023-02-28T05:36:23;99354.75;;;-6.75;67.62
44138;BME280;29800;55.942;37.314;2023-02-28T05:38:50;99346.72;;;-6.66;67.67
44138;BME280;29800;55.942;37.314;2023-02-28T05:41:18;99346.66;;;-6.56;67.37
44138;BME280;29800;55.942;37.314;2023-02-28T05:43:45;99335.75;;;-6.44;67.01
44138;BME280;29800;55.942;37.314;2023-02-28T05:46:12;99327.84;;;-6.36;66.80
44138;BME280;29800;55.942;37.314;2023-02-28T05:48:40;99316.91;;;-6.33;66.60
44138;BME280;29800;55.942;37.314;2023-02-28T05:51:07;99308.91;;;-6.33;66.49
44138;BME280;29800;55.942;37.314;2023-02-28T05:53:34;99290.25;;;-6.33;66.52
44138;BME280;29800;55.942;37.314;2023-02-28T05:56:00;99287.66;;;-6.25;66.33
44138;BME280;29800;55.942;37.314;2023-02-28T05:58:27;99296.44;;;-6.15;65.85
44138;BME280;29800;55.942;37.314;2023-02-28T06:01:00;99298.38;;;-5.99;66.03
44138;BME280;29800;55.942;37.314;2023-02-28T06:03:27;99290.09;;;-5.87;65.54
44138;BME280;29800;55.942;37.314;2023-02-28T06:05:53;99286.56;;;-5.70;65.37
44138;BME280;29800;55.942;37.314;2023-02-28T06:08:20;99291.28;;;-5.64;64.98
44138;BME280;29800;55.942;37.314;2023-02-28T06:10:46;99276.47;;;-5.58;64.57
44138;BME280;29800;55.942;37.314;2023-02-28T06:13:12;99267.03;;;-5.52;64.45
44138;BME280;29800;55.942;37.314;2023-02-28T06:15:38;99263.84;;;-5.48;64.02
44138;BME280;29800;55.942;37.314;2023-02-28T06:18:04;99264.91;;;-5.41;64.24
44138;BME280;29800;55.942;37.314;2023-02-28T06:20:31;99268.66;;;-5.25;63.93
44138;BME280;29800;55.942;37.314;2023-02-28T06:22:57;99251.97;;;-5.27;63.08
44138;BME280;29800;55.942;37.314;2023-02-28T06:25:28;99250.97;;;-5.26;63.71
44138;BME280;29800;55.942;37.314;2023-02-28T06:27:54;99249.84;;;-5.15;63.36
44138;BME280;29800;55.942;37.314;2023-02-28T06:30:20;99246.22;;;-5.06;63.13
44138;BME280;29800;55.942;37.314;2023-02-28T06:32:53;99229.03;;;-5.04;63.03
44138;BME280;29800;55.942;37.314;2023-02-28T06:35:19;99209.88;;;-4.91;63.17
44138;BME280;29800;55.942;37.314;2023-02-28T06:37:45;99208.75;;;-4.80;62.88
44138;BME280;29800;55.942;37.314;2023-02-28T06:40:12;99201.06;;;-4.75;62.79
44138;BME280;29800;55.942;37.314;2023-02-28T06:42:39;99195.41;;;-4.72;62.56
44138;BME280;29800;55.942;37.314;2023-02-28T06:45:05;99189.59;;;-4.59;62.20
44138;BME280;29800;55.942;37.314;2023-02-28T06:47:35;99179.06;;;-4.52;61.79
44138;BME280;29800;55.942;37.314;2023-02-28T06:50:03;99170.72;;;-4.49;62.09
44138;BME280;29800;55.942;37.314;2023-02-28T06:52:29;99169.69;;;-4.48;62.14
44138;BME280;29800;55.942;37.314;2023-02-28T06:54:55;99162.69;;;-4.41;62.28
44138;BME280;29800;55.942;37.314;2023-02-28T06:57:28;99160.34;;;-4.28;62.21
44138;BME280;29800;55.942;37.314;2023-02-28T07:00:06;99156.31;;;-4.15;62.16
44138;BME280;29800;55.942;37.314;2023-02-28T07:02:37;99148.09;;;-4.06;61.41
44138;BME280;29800;55.942;37.314;2023-02-28T07:05:04;99145.59;;;-3.99;61.43
44138;BME280;29800;55.942;37.314;2023-02-28T07:07:31;99151.41;;;-3.95;61.43
44138;BME280;29800;55.942;37.314;2023-02-28T07:09:58;99137.22;;;-3.96;62.07
44138;BME280;29800;55.942;37.314;2023-02-28T07:12:24;99127.69;;;-3.90;62.02
44138;BME280;29800;55.942;37.314;2023-02-28T07:14:50;99107.09;;;-3.81;61.94
44138;BME280;29800;55.942;37.314;2023-02-28T07:17:16;99117.81;;;-3.81;61.30
44138;BME280;29800;55.942;37.314;2023-02-28T07:19:42;99115.41;;;-3.68;61.43
44138;BME280;29800;55.942;37.314;2023-02-28T07:22:08;99126.69;;;-3.49;61.36
44138;BME280;29800;55.942;37.314;2023-02-28T07:24:34;99116.63;;;-3.39;60.93
44138;BME280;29800;55.942;37.314;2023-02-28T07:27:00;99116.59;;;-3.31;61.12
44138;BME280;29800;55.942;37.314;2023-02-28T07:29:27;99110.19;;;-3.30;61.34
44138;BME280;29800;55.942;37.314;2023-02-28T07:31:53;99115.03;;;-3.25;61.35
44138;BME280;29800;55.942;37.314;2023-02-28T07:34:20;99114.47;;;-3.12;61.57
44138;BME280;29800;55.942;37.314;2023-02-28T07:36:46;99096.97;;;-3.00;61.44
44138;BME280;29800;55.942;37.314;2023-02-28T07:39:12;99104.41;;;-2.87;60.96
44138;BME280;29800;55.942;37.314;2023-02-28T07:41:38;99093.34;;;-2.84;60.47
44138;BME280;29800;55.942;37.314;2023-02-28T07:44:10;99098.09;;;-2.94;61.13
44138;BME280;29800;55.942;37.314;2023-02-28T07:46:37;99086.56;;;-2.95;61.13
44138;BME280;29800;55.942;37.314;2023-02-28T07:49:03;99091.94;;;-2.95;61.02
44138;BME280;29800;55.942;37.314;2023-02-28T07:51:30;99079.66;;;-2.89;61.40
44138;BME280;29800;55.942;37.314;2023-02-28T07:53:56;99085.47;;;-2.86;61.04
44138;BME280;29800;55.942;37.314;2023-02-28T07:56:23;99064.16;;;-2.79;61.22
44138;BME280;29800;55.942;37.314;2023-02-28T07:58:49;99059.75;;;-2.72;61.15
44138;BME280;29800;55.942;37.314;2023-02-28T08:01:16;99057.53;;;-2.68;60.72
44138;BME280;29800;55.942;37.314;2023-02-28T08:03:43;99044.97;;;-2.68;60.77
44138;BME280;29800;55.942;37.314;2023-02-28T08:06:19;99045.44;;;-2.64;61.09
44138;BME280;29800;55.942;37.314;2023-02-28T08:08:46;99036.66;;;-2.73;61.09
44138;BME280;29800;55.942;37.314;2023-02-28T08:11:12;99030.00;;;-2.77;61.19
44138;BME280;29800;55.942;37.314;2023-02-28T08:13:38;99034.50;;;-2.78;61.07
44138;BME280;29800;55.942;37.314;2023-02-28T08:16:04;99053.47;;;-2.64;61.56
44138;BME280;29800;55.942;37.314;2023-02-28T08:18:32;99091.41;;;-2.52;61.62
44138;BME280;29800;55.942;37.314;2023-02-28T08:20:58;99104.06;;;-2.46;61.17
44138;BME280;29800;55.942;37.314;2023-02-28T08:23:24;99104.47;;;-2.34;61.48
44138;BME280;29800;55.942;37.314;2023-02-28T08:25:54;99107.66;;;-2.16;61.01
44138;BME280;29800;55.942;37.314;2023-02-28T08:28:21;99102.75;;;-2.12;60.93
44138;BME280;29800;55.942;37.314;2023-02-28T08:30:47;99092.75;;;-2.04;60.85
44138;BME280;29800;55.942;37.314;2023-02-28T08:33:13;99094.06;;;-1.99;60.60
44138;BME280;29800;55.942;37.314;2023-02-28T08:35:39;99079.44;;;-1.97;60.07
44138;BME280;29800;55.942;37.314;2023-02-28T08:38:05;99088.50;;;-1.98;59.56
44138;BME280;29800;55.942;37.314;2023-02-28T08:40:31;99073.69;;;-2.09;60.42
44138;BME280;29800;55.942;37.314;2023-02-28T08:42:57;99077.59;;;-2.11;60.46
44138;BME280;29800;55.942;37.314;2023-02-28T08:45:25;99076.19;;;-2.22;60.86
44138;BME280;29800;55.942;37.314;2023-02-28T08:47:51;99067.16;;;-2.21;60.86
44138;BME280;29800;55.942;37.314;2023-02-28T08:50:21;99066.28;;;-2.22;60.62
44138;BME280;29800;55.942;37.314;2023-02-28T08:52:47;99057.69;;;-2.17;60.66
44138;BME280;29800;55.942;37.314;2023-02-28T08:55:13;99039.13;;;-2.18;60.69
44138;BME280;29800;55.942;37.314;2023-02-28T08:57:39;99038.75;;;-2.15;61.17
44138;BME280;29800;55.942;37.314;2023-02-28T09:00:07;99028.97;;;-2.08;60.67
44138;BME280;29800;55.942;37.314;2023-02-28T09:02:33;99035.97;;;-2.07;60.40
44138;BME280;29800;55.942;37.314;2023-02-28T09:04:59;99024.41;;;-2.08;60.48
44138;BME280;29800;55.942;37.314;2023-02-28T09:07:25;99015.91;;;-2.11;60.53
44138;BME280;29800;55.942;37.314;2023-02-28T09:09:51;99016.47;;;-2.16;60.70
44138;BME280;29800;55.942;37.314;2023-02-28T09:12:25;99032.84;;;-2.11;60.80
44138;BME280;29800;55.942;37.314;2023-02-28T09:14:52;99030.59;;;-2.07;61.13
44138;BME280;29800;55.942;37.314;2023-02-28T09:17:18;99030.78;;;-2.09;60.84
44138;BME280;29800;55.942;37.314;2023-02-28T09:19:44;99030.59;;;-2.07;61.12
44138;BME280;29800;55.942;37.314;2023-02-28T09:22:10;99037.00;;;-1.93;61.38
44138;BME280;29800;55.942;37.314;2023-02-28T09:24:37;99031.78;;;-1.80;60.93
44138;BME280;29800;55.942;37.314;2023-02-28T09:27:04;99026.50;;;-1.73;60.69
44138;BME280;29800;55.942;37.314;2023-02-28T09:29:32;99006.25;;;-1.76;61.18
44138;BME280;29800;55.942;37.314;2023-02-28T09:31:58;99000.94;;;-1.69;61.15
44138;BME280;29800;55.942;37.314;2023-02-28T09:34:25;98999.81;;;-1.60;60.87
44138;BME280;29800;55.942;37.314;2023-02-28T09:36:51;99006.78;;;-1.65;60.90
44138;BME280;29800;55.942;37.314;2023-02-28T09:39:21;98992.72;;;-1.68;61.75
44138;BME280;29800;55.942;37.314;2023-02-28T09:41:50;98987.34;;;-1.68;61.47
44138;BME280;29800;55.942;37.314;2023-02-28T09:47:10;98983.44;;;-1.87;62.02
44138;BME280;29800;55.942;37.314;2023-02-28T09:49:44;98957.53;;;-1.94;62.83
44138;BME280;29800;55.942;37.314;2023-02-28T09:52:16;98965.31;;;-1.99;62.83
44138;BME280;29800;55.942;37.314;2023-02-28T09:54:45;98972.53;;;-2.00;62.66
44138;BME280;29800;55.942;37.314;2023-02-28T10:00:19;98952.06;;;-1.86;62.75
44138;BME280;29800;55.942;37.314;2023-02-28T10:06:14;98933.28;;;-1.86;62.89
44138;BME280;29800;55.942;37.314;2023-02-28T10:09:02;98927.97;;;-1.79;62.91
44138;BME280;29800;55.942;37.314;2023-02-28T10:11:32;98925.16;;;-1.93;63.00
44138;BME280;29800;55.942;37.314;2023-02-28T10:14:03;98924.34;;;-1.93;63.34
44138;BME280;29800;55.942;37.314;2023-02-28T10:16:36;98918.13;;;-1.94;63.06
44138;BME280;29800;55.942;37.314;2023-02-28T10:19:14;98921.34;;;-1.98;63.46
44138;BME280;29800;55.942;37.314;2023-02-28T10:21:55;98919.53;;;-1.98;63.69
44138;BME280;29800;55.942;37.314;2023-02-28T10:24:33;98923.03;;;-1.97;63.92
44138;BME280;29800;55.942;37.314;2023-02-28T10:27:22;98926.53;;;-1.82;63.85
44138;BME280;29800;55.942;37.314;2023-02-28T10:29:52;98926.03;;;-1.86;63.68
44138;BME280;29800;55.942;37.314;2023-02-28T10:32:30;98929.59;;;-1.85;63.85
44138;BME280;29800;55.942;37.314;2023-02-28T10:35:16;98927.16;;;-1.80;64.02
44138;BME280;29800;55.942;37.314;2023-02-28T10:37:47;98908.44;;;-1.73;63.84
44138;BME280;29800;55.942;37.314;2023-02-28T10:45:28;98900.13;;;-1.78;63.90
44138;BME280;29800;55.942;37.314;2023-02-28T10:48:05;98896.34;;;-1.84;64.13
44138;BME280;29800;55.942;37.314;2023-02-28T10:50:51;98899.81;;;-1.69;64.45
44138;BME280;29800;55.942;37.314;2023-02-28T10:53:49;98895.84;;;-1.51;63.93
44138;BME280;29800;55.942;37.314;2023-02-28T10:56:34;98885.91;;;-1.57;63.35
44138;BME280;29800;55.942;37.314;2023-02-28T10:59:28;98876.03;;;-1.50;63.51
44138;BME280;29800;55.942;37.314;2023-02-28T11:01:54;98884.53;;;-1.68;63.69
44138;BME280;29800;55.942;37.314;2023-02-28T11:07:00;98884.34;;;-1.67;64.34
44138;BME280;29800;55.942;37.314;2023-02-28T11:12:00;98884.16;;;-1.43;64.35
44138;BME280;29800;55.942;37.314;2023-02-28T11:14:32;98884.44;;;-1.32;64.40
44138;BME280;29800;55.942;37.314;2023-02-28T11:17:14;98869.28;;;-1.18;64.38
44138;BME280;29800;55.942;37.314;2023-02-28T11:19:48;98869.66;;;-1.21;64.40
44138;BME280;29800;55.942;37.314;2023-02-28T11:22:19;98863.72;;;-1.16;64.65
44138;BME280;29800;55.942;37.314;2023-02-28T11:24:50;98856.09;;;-1.13;65.12
44138;BME280;29800;55.942;37.314;2023-02-28T11:29:56;98852.81;;;-1.08;65.02
44138;BME280;29800;55.942;37.314;2023-02-28T11:32:28;98856.72;;;-1.11;65.44
44138;BME280;29800;55.942;37.314;2023-02-28T11:37:38;98843.72;;;-1.07;66.35
44138;BME280;29800;55.942;37.314;2023-02-28T11:40:19;98834.53;;;-0.91;65.90
44138;BME280;29800;55.942;37.314;2023-02-28T11:43:50;98834.34;;;-0.89;66.14
44138;BME280;29800;55.942;37.314;2023-02-28T11:46:06;98826.00;;;-1.01;66.09
44138;BME280;29800;55.942;37.314;2023-02-28T11:48:44;98824.06;;;-1.14;66.56
44138;BME280;29800;55.942;37.314;2023-02-28T11:51:27;98814.59;;;-1.03;66.50
44138;BME280;29800;55.942;37.314;2023-02-28T11:57:03;98804.09;;;-1.05;67.57
44138;BME280;29800;55.942;37.314;2023-02-28T12:10:27;98810.22;;;-0.76;68.06
44138;BME280;29800;55.942;37.314;2023-02-28T12:16:07;98797.78;;;-0.84;67.95
44138;BME280;29800;55.942;37.314;2023-02-28T12:26:44;98774.31;;;-1.03;68.91
44138;BME280;29800;55.942;37.314;2023-02-28T12:29:30;98773.34;;;-0.89;68.74
44138;BME280;29800;55.942;37.314;2023-02-28T12:32:33;98772.41;;;-0.75;68.63
44138;BME280;29800;55.942;37.314;2023-02-28T12:35:14;98767.22;;;-0.76;68.28
44138;BME280;29800;55.942;37.314;2023-02-28T12:37:52;98761.63;;;-0.81;68.51
44138;BME280;29800;55.942;37.314;2023-02-28T12:40:23;98747.13;;;-0.87;68.54
44138;BME280;29800;55.942;37.314;2023-02-28T12:43:02;98735.97;;;-0.84;68.59
44138;BME280;29800;55.942;37.314;2023-02-28T12:46:10;98739.31;;;-0.75;68.51
44138;BME280;29800;55.942;37.314;2023-02-28T12:48:56;98727.75;;;-0.69;68.53
44138;BME280;29800;55.942;37.314;2023-02-28T12:51:24;98727.97;;;-0.70;68.42
44138;BME280;29800;55.942;37.314;2023-02-28T12:54:04;98721.97;;;-0.66;68.30
44138;BME280;29800;55.942;37.314;2023-02-28T12:56:53;98720.16;;;-0.59;68.47
44138;BME280;29800;55.942;37.314;2023-02-28T12:59:25;98707.91;;;-0.68;67.66
44138;BME280;29800;55.942;37.314;2023-02-28T13:10:15;98703.34;;;-0.67;68.29
44138;BME280;29800;55.942;37.314;2023-02-28T13:12:49;98722.63;;;-0.57;68.64
44138;BME280;29800;55.942;37.314;2023-02-28T13:17:57;98705.06;;;-0.46;68.18
44138;BME280;29800;55.942;37.314;2023-02-28T13:20:35;98697.41;;;-0.43;68.60
44138;BME280;29800;55.942;37.314;2023-02-28T13:23:02;98689.97;;;-0.47;68.04
44138;BME280;29800;55.942;37.314;2023-02-28T13:28:00;98668.88;;;-0.50;68.29
44138;BME280;29800;55.942;37.314;2023-02-28T13:38:48;98671.38;;;-0.56;68.57
44138;BME280;29800;55.942;37.314;2023-02-28T13:44:14;98674.25;;;-0.50;68.77
44138;BME280;29800;55.942;37.314;2023-02-28T13:51:49;98672.00;;;-0.27;68.08
44138;BME280;29800;55.942;37.314;2023-02-28T13:57:20;98670.53;;;-0.49;68.77
44138;BME280;29800;55.942;37.314;2023-02-28T14:05:20;98675.69;;;-0.48;69.00
44138;BME280;29800;55.942;37.314;2023-02-28T14:07:58;98672.19;;;-0.42;69.17
44138;BME280;29800;55.942;37.314;2023-02-28T14:10:35;98667.44;;;-0.40;69.50
44138;BME280;29800;55.942;37.314;2023-02-28T14:13:37;98661.25;;;-0.27;69.59
44138;BME280;29800;55.942;37.314;2023-02-28T14:16:21;98660.00;;;-0.38;69.26
44138;BME280;29800;55.942;37.314;2023-02-28T14:19:00;98654.63;;;-0.38;69.53
44138;BME280;29800;55.942;37.314;2023-02-28T14:21:30;98647.38;;;-0.37;69.55
44138;BME280;29800;55.942;37.314;2023-02-28T14:32:37;98625.25;;;-0.26;69.44
44138;BME280;29800;55.942;37.314;2023-02-28T14:37:45;98622.78;;;-0.27;69.36
44138;BME280;29800;55.942;37.314;2023-02-28T14:40:20;98630.63;;;-0.26;69.76
44138;BME280;29800;55.942;37.314;2023-02-28T14:42:57;98625.66;;;-0.22;69.99
44138;BME280;29800;55.942;37.314;2023-02-28T14:45:24;98622.78;;;-0.21;69.83
44138;BME280;29800;55.942;37.314;2023-02-28T14:47:51;98619.88;;;-0.19;69.71
44138;BME280;29800;55.942;37.314;2023-02-28T14:50:23;98621.94;;;-0.14;70.02
44138;BME280;29800;55.942;37.314;2023-02-28T14:52:54;98627.72;;;-0.17;70.00
44138;BME280;29800;55.942;37.314;2023-02-28T14:55:26;98620.91;;;-0.20;70.07
44138;BME280;29800;55.942;37.314;2023-02-28T14:57:59;98626.06;;;-0.19;70.33
44138;BME280;29800;55.942;37.314;2023-02-28T15:00:28;98631.44;;;-0.19;69.92
44138;BME280;29800;55.942;37.314;2023-02-28T15:02:56;98632.72;;;-0.21;70.35
44138;BME280;29800;55.942;37.314;2023-02-28T15:05:33;98628.97;;;-0.13;70.52
44138;BME280;29800;55.942;37.314;2023-02-28T15:08:15;98623.56;;;-0.13;70.81
44138;BME280;29800;55.942;37.314;2023-02-28T15:10:55;98621.75;;;-0.13;70.35
44138;BME280;29800;55.942;37.314;2023-02-28T15:13:31;98602.06;;;-0.13;70.57
44138;BME280;29800;55.942;37.314;2023-02-28T15:16:03;98609.31;;;-0.07;70.30
44138;BME280;29800;55.942;37.314;2023-02-28T15:21:03;98608.47;;;0.06;69.99
44138;BME280;29800;55.942;37.314;2023-02-28T15:23:31;98601.22;;;0.06;70.11
44138;BME280;29800;55.942;37.314;2023-02-28T15:25:58;98603.69;;;0.08;69.94
44138;BME280;29800;55.942;37.314;2023-02-28T15:28:25;98608.25;;;0.07;70.19